• Join FlightAware (Why Join?)
  • Login
  • US Flag 
11:37PM EDT


 

Airport Tracker/Info


-or-


 

Live Flight TrackerFlight Track Log ✈ DAL3741 ✈ 01-May-2013 ✈ KMSP - KCWA

Flight Track Log - Related Links

Times and Time Zones

All times are in EDT time to prevent confusion due to time zone crossing. See the DAL3741 flight status page for this flight to view local times or setup timezone preferences in your user account.

Time Position Orientation Groundspeed Altitude Reporting Facility
EDT Latitude Longitude Course Direction KTS MPH feet Rate Location/Type
03:47PM 44.9333 -93.2500 66° East 170 196 3,200  Level Minneapolis TRACON
03:47PM 44.9369 -93.2492 North 169 194 3,900 2,340 Climbing Minneapolis Center
03:48PM 45.0025 -93.2350 North 255 293 6,500 2,460 Climbing Minneapolis Center
03:49PM 45.0317 -93.1336 68° East 277 319 9,000 2,040 Climbing Minneapolis Center
03:50PM 45.0661 -93.0253 66° East 301 346 10,700 1,440 Climbing Minneapolis Center
03:51PM 45.0441 -92.5945 66° East  Level FlightAware Approximate
03:51PM 45.1067 -92.8986 66° East 352 405 12,000  Level Minneapolis Center
03:52PM 45.0797 -92.4786 66° East  Level FlightAware Approximate
03:52PM 45.1522 -92.7611 65° Northeast 384 442 13,200  Level Minneapolis Center
03:53PM 45.1981 -92.6183 65° Northeast 398 458 15,600 1,800 Climbing Minneapolis Center
03:54PM 45.2428 -92.4772 66° East 394 453 17,000 600 Climbing Minneapolis Center
03:55PM 45.2931 -92.3211 65° Northeast 438 504 16,900 -60 Descending Minneapolis Center
03:56PM 45.3247 -92.1156 78° East 445 512 16,900  Level Minneapolis Center
03:57PM 45.2953 -91.9625 105° East 404 465 16,900  Level Minneapolis Center
03:58PM 45.2617 -91.8139 108° East 398 458 16,900  Level Minneapolis Center
04:00PM 45.2297 -91.6614 107° East 401 461 16,900  Level Minneapolis Center
04:01PM 45.1883 -91.4772 108° East 408 470 16,900  Level Minneapolis Center
04:02PM 45.1478 -91.2972 108° East 403 464 16,900  Level Minneapolis Center
04:03PM 45.1156 -91.1506 107° East 396 456 16,900  Level Minneapolis Center
04:04PM 45.0897 -91.0303 107° East 397 457 16,900  Level Minneapolis Center
04:05PM 45.0467 -90.8400 108° East 399 459 17,000 -360 Climbing Minneapolis Center
04:06PM 45.0144 -90.6933 107° East 403 464 16,200 -1,560 Descending Minneapolis Center
04:07PM 44.9794 -90.5406 108° East 393 452 13,800 -2,280 Descending Minneapolis Center
04:08PM 44.9481 -90.3992 107° East 366 421 11,600 -1,800 Descending Minneapolis Center
04:09PM 44.9203 -90.2758 108° East 317 365 10,200 -1,440 Descending Minneapolis Center
04:10PM 44.8961 -90.1753 109° East 288 331 8,700 -1,320 Descending Minneapolis Center
04:11PM 44.8542 -90.0939 126° Southeast 251 289 7,600 -840 Descending Minneapolis Center
04:12PM 44.8028 -90.0503 149° Southeast 207 238 7,000 -360 Descending Minneapolis Center
04:13PM 44.7539 -90.0103 150° Southeast 196 226 6,900 -60 Descending Minneapolis Center
04:14PM 44.7028 -89.9700 151° Southeast 200 230 6,900 -240 Level Minneapolis Center
04:15PM 44.7025 -89.8836 90° East 240 276 6,500 -600 Descending Minneapolis Center
04:16PM 44.7081 -89.7958 85° East 216 249 5,700 -1,020 Descending Minneapolis Center
04:18PM 44.7667 -89.6667 51° Northeast  Level FlightAware Approximate
04:18PM 44.6889 -89.6894 51° Northeast 138 159 3,400  Level Minneapolis Center
04:19PM 44.7167 -89.6611 36° Northeast 132 152 2,300 -1,140 Descending Minneapolis Center